createdAt,value
2019-03-22T00:02:07.018Z,41.13
2019-03-22T00:04:37.620Z,38.75
2019-03-22T00:07:05.517Z,41.83
2019-03-22T00:09:33.504Z,41.28
2019-03-22T00:12:04.125Z,43.15
2019-03-22T00:14:31.558Z,41.98
2019-03-22T00:17:02.324Z,43.38
2019-03-22T00:19:30.200Z,44.50
2019-03-22T00:21:58.215Z,41.20
2019-03-22T00:24:29.078Z,41.88
2019-03-22T00:26:59.610Z,43.63
2019-03-22T00:29:27.797Z,43.75
2019-03-22T00:31:56.487Z,42.98
2019-03-22T00:34:24.458Z,42.58
2019-03-22T00:36:52.365Z,44.20
2019-03-22T00:39:20.296Z,45.03
2019-03-22T00:41:48.264Z,45.08
2019-03-22T00:44:16.441Z,43.20
2019-03-22T00:46:44.410Z,45.75
2019-03-22T00:49:12.382Z,45.63
2019-03-22T00:51:42.397Z,44.38
2019-03-22T00:54:10.777Z,45.80
2019-03-22T00:56:38.750Z,47.40
2019-03-22T00:59:07.537Z,48.20
2019-03-22T01:01:35.919Z,47.27
2019-03-22T01:04:03.995Z,48.05
2019-03-22T01:06:32.471Z,48.23
2019-03-22T01:09:01.248Z,45.30
2019-03-22T01:11:30.772Z,47.35
2019-03-22T01:13:59.562Z,48.45
2019-03-22T01:16:27.731Z,47.60
2019-03-22T01:18:55.812Z,49.80
2019-03-22T01:21:24.089Z,48.00
2019-03-22T01:23:52.568Z,48.23
2019-03-22T01:26:20.641Z,49.77
2019-03-22T01:28:49.122Z,49.58
2019-03-22T01:31:19.633Z,49.05
2019-03-22T01:33:47.930Z,49.08
2019-03-22T01:36:16.607Z,49.20
2019-03-22T01:38:44.484Z,49.53
2019-03-22T01:41:12.865Z,49.00
2019-03-22T01:43:41.243Z,49.35
2019-03-22T01:46:09.728Z,52.20
2019-03-22T01:48:37.798Z,51.28
2019-03-22T01:51:06.487Z,50.43
2019-03-22T01:53:34.457Z,51.58
2019-03-22T01:56:03.048Z,53.60
2019-03-22T01:58:31.421Z,54.45
2019-03-22T02:00:59.494Z,51.75
2019-03-22T02:03:27.667Z,49.38
2019-03-22T02:05:56.234Z,48.65
2019-03-22T02:08:24.428Z,50.00
2019-03-22T02:10:52.335Z,51.50
2019-03-22T02:13:20.895Z,48.83
2019-03-22T02:15:49.466Z,48.40
2019-03-22T02:18:18.155Z,52.08
2019-03-22T02:20:46.621Z,52.40
2019-03-22T02:23:15.016Z,51.92
2019-03-22T02:25:43.298Z,51.73
2019-03-22T02:28:12.802Z,51.53
2019-03-22T02:30:43.954Z,52.40
2019-03-22T02:33:12.084Z,54.98
2019-03-22T02:35:41.925Z,53.00
2019-03-22T02:38:10.420Z,53.55
2019-03-22T02:40:38.797Z,54.48
2019-03-22T02:43:06.665Z,56.30
2019-03-22T02:45:34.800Z,56.10
2019-03-22T02:48:04.037Z,54.40
2019-03-22T02:50:32.624Z,55.88
2019-03-22T02:53:01.644Z,56.50
2019-03-22T02:55:29.797Z,55.98
2019-03-22T02:57:58.081Z,58.87
2019-03-22T03:00:26.160Z,57.30
2019-03-22T03:02:54.429Z,57.95
2019-03-22T03:05:23.415Z,59.00
2019-03-22T03:07:51.484Z,60.23
2019-03-22T03:10:19.965Z,61.00
2019-03-22T03:12:48.362Z,59.00
2019-03-22T03:15:16.896Z,58.78
2019-03-22T03:17:45.117Z,61.02
2019-03-22T03:20:14.001Z,62.98
2019-03-22T03:22:41.972Z,63.28
2019-03-22T03:25:10.146Z,61.65
2019-03-22T03:27:38.819Z,61.90
2019-03-22T03:30:07.009Z,64.37
2019-03-22T03:32:35.391Z,63.17
2019-03-22T03:35:03.572Z,65.65
2019-03-22T03:37:31.757Z,63.30
2019-03-22T03:40:00.631Z,64.80
2019-03-22T03:42:28.703Z,66.30
2019-03-22T03:44:56.798Z,64.80
2019-03-22T03:47:25.162Z,63.95
2019-03-22T03:49:53.081Z,67.45
2019-03-22T03:52:20.995Z,65.05
2019-03-22T03:54:48.975Z,65.75
2019-03-22T03:57:16.832Z,69.03
2019-03-22T03:59:45.215Z,66.50
2019-03-22T04:02:13.695Z,67.90
2019-03-22T04:04:42.445Z,67.58
2019-03-22T04:07:12.725Z,65.35
2019-03-22T04:09:40.984Z,69.77
2019-03-22T04:12:09.981Z,70.05
2019-03-22T04:14:38.678Z,67.85
2019-03-22T04:17:06.738Z,68.60
2019-03-22T04:19:34.713Z,68.28
2019-03-22T04:22:02.994Z,67.12
2019-03-22T04:24:32.526Z,68.02
2019-03-22T04:27:01.383Z,67.92
2019-03-22T04:29:29.661Z,66.97
2019-03-22T04:31:57.631Z,66.40
2019-03-22T04:34:26.218Z,68.83
2019-03-22T04:36:54.298Z,70.22
2019-03-22T04:39:22.771Z,70.25
2019-03-22T04:41:51.562Z,69.05
2019-03-22T04:44:20.349Z,70.40
2019-03-22T04:46:48.218Z,68.60
2019-03-22T04:49:16.190Z,69.00
2019-03-22T04:51:44.367Z,70.65
2019-03-22T04:54:12.445Z,70.65
2019-03-22T04:56:40.815Z,69.65
2019-03-22T04:59:18.455Z,71.95
2019-03-22T05:01:39.019Z,72.35
2019-03-22T05:04:07.681Z,70.92
2019-03-22T05:06:36.076Z,71.07
2019-03-22T05:09:04.155Z,74.22
2019-03-22T05:11:35.812Z,72.47
2019-03-22T05:14:03.896Z,73.17
2019-03-22T05:16:35.595Z,72.42
2019-03-22T05:19:03.508Z,74.92
2019-03-22T05:21:31.580Z,72.30
2019-03-22T05:23:59.652Z,74.10
2019-03-22T05:26:27.724Z,72.75
2019-03-22T05:28:55.803Z,72.92
2019-03-22T05:31:24.176Z,74.12
2019-03-22T05:33:52.761Z,72.80
2019-03-22T05:36:23.905Z,71.80
2019-03-22T05:38:52.490Z,74.50
2019-03-22T05:41:20.974Z,70.20
2019-03-22T05:43:49.456Z,71.95
2019-03-22T05:46:17.972Z,70.80
2019-03-22T05:48:47.577Z,72.90
2019-03-22T05:51:16.543Z,69.53
2019-03-22T05:53:47.094Z,68.60
2019-03-22T05:56:15.349Z,70.90
2019-03-22T05:58:43.935Z,70.85
2019-03-22T06:01:12.752Z,70.37
2019-03-22T06:03:41.393Z,72.05
2019-03-22T06:06:09.589Z,70.35
2019-03-22T06:08:37.768Z,72.22
2019-03-22T06:11:05.734Z,69.30
2019-03-22T06:13:34.111Z,70.20
2019-03-22T06:16:03.192Z,68.28
2019-03-22T06:18:31.689Z,68.50
2019-03-22T06:20:59.748Z,69.45
2019-03-22T06:23:28.041Z,66.37
2019-03-22T06:25:55.918Z,65.70
2019-03-22T06:28:24.208Z,64.92
2019-03-22T06:30:52.257Z,64.37
2019-03-22T06:33:20.228Z,67.92
2019-03-22T06:35:49.529Z,63.83
2019-03-22T06:38:18.626Z,62.93
2019-03-22T06:40:46.699Z,63.00
2019-03-22T06:43:14.782Z,61.77
2019-03-22T06:45:42.949Z,62.30
2019-03-22T06:48:11.141Z,60.50
2019-03-22T06:50:39.467Z,60.58
2019-03-22T06:53:07.480Z,58.83
2019-03-22T06:55:36.162Z,59.33
2019-03-22T06:58:05.974Z,59.85
2019-03-22T07:00:33.945Z,58.35
2019-03-22T07:03:02.035Z,59.05
2019-03-22T07:05:30.401Z,57.67
2019-03-22T07:07:59.088Z,55.85
2019-03-22T07:10:27.669Z,57.65
2019-03-22T07:12:55.641Z,55.63
2019-03-22T07:15:24.119Z,57.10
2019-03-22T07:17:52.301Z,56.23
2019-03-22T07:20:20.164Z,55.15
2019-03-22T07:22:48.237Z,53.83
2019-03-22T07:25:17.013Z,53.98
2019-03-22T07:27:47.334Z,51.33
2019-03-22T07:30:18.959Z,52.17
2019-03-22T07:32:45.032Z,50.83
2019-03-22T07:35:13.502Z,51.60
2019-03-22T07:37:43.934Z,51.65
2019-03-22T07:40:12.527Z,50.80
2019-03-22T07:42:41.094Z,51.23
2019-03-22T07:45:09.187Z,50.90
2019-03-22T07:47:37.257Z,49.70
2019-03-22T07:50:05.435Z,51.70
2019-03-22T07:52:33.921Z,51.53
2019-03-22T07:55:02.003Z,51.53
2019-03-22T07:57:32.946Z,51.55
2019-03-22T08:00:01.722Z,50.70
2019-03-22T08:02:30.302Z,50.17
2019-03-22T08:04:58.683Z,49.35
2019-03-22T08:07:27.064Z,50.52
2019-03-22T08:09:55.819Z,48.63
2019-03-22T08:12:23.852Z,49.93
2019-03-22T08:14:53.876Z,50.35
2019-03-22T08:17:22.526Z,49.73
2019-03-22T08:19:51.013Z,48.45
2019-03-22T08:22:19.404Z,48.42
2019-03-22T08:24:48.205Z,47.80
2019-03-22T08:27:16.251Z,48.20
2019-03-22T08:29:44.334Z,47.88
2019-03-22T08:32:12.601Z,48.65
2019-03-22T08:34:40.665Z,45.98
2019-03-22T08:37:08.999Z,45.28
2019-03-22T08:39:37.228Z,44.20
2019-03-22T08:42:05.506Z,44.58
2019-03-22T08:44:33.841Z,45.35
2019-03-22T08:47:03.635Z,42.20
2019-03-22T08:49:32.384Z,44.75
2019-03-22T08:52:00.552Z,43.52
2019-03-22T08:54:28.737Z,41.80
2019-03-22T08:56:57.095Z,43.35
2019-03-22T08:59:25.758Z,43.05
2019-03-22T09:01:53.877Z,41.80
2019-03-22T09:04:21.884Z,42.70
2019-03-22T09:06:50.741Z,42.50
2019-03-22T09:09:19.017Z,42.67
2019-03-22T09:11:47.549Z,42.48
2019-03-22T09:14:15.534Z,43.05
2019-03-22T09:16:43.849Z,43.55
2019-03-22T09:19:11.867Z,44.15
2019-03-22T09:21:40.407Z,42.98
2019-03-22T09:24:08.715Z,43.13
2019-03-22T09:26:47.098Z,42.10
2019-03-22T09:29:06.672Z,43.85
2019-03-22T09:31:35.155Z,44.58
2019-03-22T09:34:03.057Z,44.13
2019-03-22T09:36:31.159Z,43.90
2019-03-22T09:38:59.582Z,42.30
2019-03-22T09:41:27.681Z,43.13
2019-03-22T09:43:55.877Z,43.73
2019-03-22T09:46:24.104Z,41.37
2019-03-22T09:48:52.385Z,43.65
2019-03-22T09:51:21.168Z,44.10
2019-03-22T09:53:49.840Z,44.25
2019-03-22T09:56:18.340Z,43.73
2019-03-22T09:58:48.347Z,44.23
2019-03-22T10:01:23.731Z,44.63
2019-03-22T10:03:47.882Z,46.70
2019-03-22T10:06:15.952Z,45.10
2019-03-22T10:08:44.462Z,43.60
2019-03-22T10:11:12.436Z,46.65
2019-03-22T10:13:40.458Z,45.35
2019-03-22T10:16:10.509Z,42.70
2019-03-22T10:18:38.388Z,46.23
2019-03-22T10:21:06.361Z,43.30
2019-03-22T10:23:34.474Z,45.45
2019-03-22T10:26:02.523Z,43.17
2019-03-22T10:28:33.271Z,44.67
2019-03-22T10:31:03.661Z,43.65
2019-03-22T10:33:31.640Z,46.33
2019-03-22T10:35:59.925Z,47.73
2019-03-22T10:38:31.936Z,47.20
2019-03-22T10:41:00.832Z,45.35
2019-03-22T10:43:29.311Z,47.23
2019-03-22T10:45:57.449Z,48.40
2019-03-22T10:48:25.667Z,47.35
2019-03-22T10:50:56.465Z,47.30
2019-03-22T10:53:25.022Z,46.53
2019-03-22T10:55:53.705Z,48.92
2019-03-22T10:58:21.765Z,50.75
2019-03-22T11:00:50.116Z,46.92
2019-03-22T11:03:18.133Z,51.48
2019-03-22T11:05:46.206Z,50.63
2019-03-22T11:08:14.479Z,48.73
2019-03-22T11:10:43.883Z,50.98
2019-03-22T11:13:12.058Z,54.27
2019-03-22T11:15:48.104Z,54.50
2019-03-22T11:18:09.958Z,53.08
2019-03-22T11:20:38.426Z,54.67
2019-03-22T11:23:07.173Z,51.05
2019-03-22T11:25:35.392Z,53.17
2019-03-22T11:28:04.289Z,54.67
2019-03-22T11:30:32.562Z,55.83
2019-03-22T11:33:01.239Z,55.55
2019-03-22T11:35:29.424Z,53.63
2019-03-22T11:38:00.175Z,51.10
2019-03-22T11:40:28.128Z,54.42
2019-03-22T11:42:56.206Z,58.30
2019-03-22T11:45:24.698Z,57.20
2019-03-22T11:47:52.859Z,56.18
2019-03-22T11:50:22.980Z,56.02
2019-03-22T11:52:50.848Z,57.43
2019-03-22T11:55:19.637Z,59.60
2019-03-22T11:57:48.083Z,57.65
2019-03-22T12:00:17.213Z,57.08
2019-03-22T12:02:47.320Z,58.78
2019-03-22T12:05:15.885Z,61.15
2019-03-22T12:07:43.997Z,61.35
2019-03-22T12:10:12.168Z,58.65
2019-03-22T12:12:40.344Z,63.17
2019-03-22T12:15:08.316Z,62.88
2019-03-22T12:17:36.899Z,61.90
2019-03-22T12:20:05.280Z,64.65
2019-03-22T12:22:33.250Z,65.70
2019-03-22T12:25:01.482Z,66.57
2019-03-22T12:27:36.580Z,65.97
2019-03-22T12:29:59.824Z,66.75
2019-03-22T12:32:32.096Z,63.63
2019-03-22T12:34:58.528Z,64.85
2019-03-22T12:37:26.602Z,61.48
2019-03-22T12:39:55.291Z,61.30
2019-03-22T12:42:24.182Z,59.05
2019-03-22T12:44:52.561Z,58.23
2019-03-22T12:47:20.939Z,54.00
2019-03-22T12:49:48.913Z,51.83
2019-03-22T12:52:17.187Z,53.68
2019-03-22T12:54:45.261Z,50.63
2019-03-22T12:57:13.132Z,50.10
2019-03-22T12:59:41.202Z,50.52
2019-03-22T13:02:09.684Z,47.70
2019-03-22T13:04:38.267Z,47.13
2019-03-22T13:07:08.892Z,46.83
2019-03-22T13:09:37.587Z,46.30
2019-03-22T13:12:06.582Z,45.25
2019-03-22T13:14:35.064Z,44.83
2019-03-22T13:17:03.033Z,43.75
2019-03-22T13:19:31.926Z,43.38
2019-03-22T13:22:00.317Z,42.38
2019-03-22T13:24:28.568Z,41.45
2019-03-22T13:26:57.071Z,42.78
2019-03-22T13:29:25.449Z,41.45
2019-03-22T13:31:54.236Z,40.25
2019-03-22T13:34:22.717Z,40.90
2019-03-22T13:36:52.782Z,40.98
2019-03-22T13:39:21.116Z,40.28
2019-03-22T13:41:49.381Z,39.90
2019-03-22T13:44:18.076Z,40.55
2019-03-22T13:46:46.358Z,41.05
2019-03-22T13:49:14.329Z,40.30
2019-03-22T13:51:45.501Z,38.40
2019-03-22T13:54:13.443Z,39.27
2019-03-22T13:56:42.131Z,39.90
2019-03-22T13:59:12.441Z,39.08
2019-03-22T14:01:40.326Z,36.83
2019-03-22T14:04:10.240Z,37.63
2019-03-22T14:06:38.218Z,36.88
2019-03-22T14:09:06.589Z,36.15
2019-03-22T14:11:34.867Z,36.60
2019-03-22T14:14:02.943Z,36.05
2019-03-22T14:16:32.094Z,33.45
2019-03-22T14:19:00.103Z,34.95
2019-03-22T14:21:28.085Z,34.15
2019-03-22T14:23:58.488Z,34.70
2019-03-22T14:26:27.092Z,35.55
2019-03-22T14:28:55.170Z,33.33
2019-03-22T14:31:23.854Z,33.95
2019-03-22T14:33:53.976Z,33.08
2019-03-22T14:36:22.048Z,32.42
2019-03-22T14:38:51.870Z,34.27
2019-03-22T14:41:20.444Z,32.63
2019-03-22T14:43:48.621Z,32.30
2019-03-22T14:46:16.691Z,33.30
2019-03-22T14:48:44.974Z,32.05
2019-03-22T14:51:13.143Z,33.20
2019-03-22T14:53:41.118Z,31.80
2019-03-22T14:56:09.373Z,31.07
2019-03-22T14:58:37.989Z,32.95
2019-03-22T15:01:06.160Z,31.77
2019-03-22T15:03:34.943Z,32.08
2019-03-22T15:06:02.918Z,33.10
2019-03-22T15:08:31.702Z,32.95
2019-03-22T15:10:59.674Z,32.90
2019-03-22T15:13:27.644Z,31.62
2019-03-22T15:15:57.855Z,32.60
2019-03-22T15:18:29.089Z,33.10
2019-03-22T15:20:57.083Z,33.05
2019-03-22T15:23:25.268Z,32.55
2019-03-22T15:25:53.336Z,30.57
2019-03-22T15:28:21.712Z,31.57
2019-03-22T15:30:49.885Z,33.23
2019-03-22T15:33:20.580Z,30.68
2019-03-22T15:35:49.125Z,31.87
2019-03-22T15:38:17.487Z,30.62
2019-03-22T15:40:45.970Z,31.73
2019-03-22T15:43:14.554Z,30.27
2019-03-22T15:45:43.141Z,30.88
2019-03-22T15:48:11.319Z,29.85
2019-03-22T15:50:48.609Z,30.75
2019-03-22T15:53:16.774Z,29.98
2019-03-22T15:55:44.849Z,30.77
2019-03-22T15:58:13.132Z,31.02
2019-03-22T16:00:41.506Z,29.90
2019-03-22T16:03:09.683Z,30.00
2019-03-22T16:05:37.667Z,30.37
2019-03-22T16:08:06.337Z,30.17
2019-03-22T16:10:34.515Z,29.52
2019-03-22T16:13:02.380Z,29.95
2019-03-22T16:15:31.069Z,29.30
2019-03-22T16:17:59.664Z,30.55
2019-03-22T16:20:28.242Z,28.95
2019-03-22T16:22:56.888Z,29.67
2019-03-22T16:25:24.944Z,30.45
2019-03-22T16:27:53.379Z,31.52
2019-03-22T16:30:21.352Z,31.82
2019-03-22T16:32:49.529Z,31.27
2019-03-22T16:35:17.707Z,31.77
2019-03-22T16:37:45.667Z,31.40
2019-03-22T16:40:23.633Z,29.87
2019-03-22T16:42:46.730Z,31.07
2019-03-22T16:45:15.331Z,31.45
2019-03-22T16:47:43.693Z,32.15
2019-03-22T16:50:12.382Z,31.87
2019-03-22T16:52:40.966Z,31.87
2019-03-22T16:55:09.071Z,32.48
2019-03-22T16:57:37.112Z,31.42
2019-03-22T17:00:05.786Z,31.23
2019-03-22T17:02:33.770Z,30.80
2019-03-22T17:05:01.844Z,31.10
2019-03-22T17:16:20.388Z,29.98
2019-03-22T17:18:49.586Z,31.05
2019-03-22T17:21:25.335Z,29.95
2019-03-22T17:23:53.926Z,30.62
2019-03-22T17:26:22.329Z,28.52
2019-03-22T17:28:50.785Z,30.60
2019-03-22T17:31:19.572Z,28.70
2019-03-22T17:33:54.489Z,30.57
2019-03-22T17:36:22.791Z,29.02
2019-03-22T17:38:53.827Z,28.52
2019-03-22T17:41:22.444Z,28.20
2019-03-22T17:43:51.205Z,29.27
2019-03-22T17:46:23.104Z,29.90
2019-03-22T17:48:55.756Z,28.95
2019-03-22T17:51:25.783Z,30.47
2019-03-22T17:53:54.243Z,28.60
2019-03-22T17:56:23.931Z,30.62
2019-03-22T17:58:52.335Z,30.23
2019-03-22T18:01:21.262Z,29.50
2019-03-22T18:03:50.440Z,30.43
2019-03-22T18:06:21.894Z,30.10
2019-03-22T18:08:50.884Z,29.60
2019-03-22T18:11:19.361Z,30.27
2019-03-22T18:13:49.945Z,29.15
2019-03-22T18:16:20.563Z,30.05
2019-03-22T18:18:52.084Z,28.98
2019-03-22T18:21:20.783Z,31.90
2019-03-22T18:23:49.358Z,29.80
2019-03-22T18:26:18.360Z,31.30
2019-03-22T18:28:47.231Z,31.73
2019-03-22T18:31:15.671Z,32.08
2019-03-22T18:33:44.098Z,33.40
2019-03-22T18:36:12.578Z,29.92
2019-03-22T18:38:44.092Z,31.77
2019-03-22T18:41:11.894Z,31.35
2019-03-22T18:43:41.046Z,30.77
2019-03-22T18:46:10.105Z,30.80
2019-03-22T18:48:39.413Z,32.30
2019-03-22T18:51:07.667Z,32.25
2019-03-22T18:53:37.803Z,32.25
2019-03-22T18:56:06.079Z,31.62
2019-03-22T18:58:34.856Z,34.35
2019-03-22T19:01:03.675Z,32.08
2019-03-22T19:03:32.230Z,34.10
2019-03-22T19:06:01.533Z,32.40
2019-03-22T19:08:30.116Z,33.10
2019-03-22T19:10:59.520Z,33.80
2019-03-22T19:13:30.833Z,33.63
2019-03-22T19:15:58.541Z,35.52
2019-03-22T19:18:27.227Z,35.20
2019-03-22T19:20:55.395Z,33.78
2019-03-22T19:23:24.287Z,34.67
2019-03-22T19:25:52.574Z,36.28
2019-03-22T19:28:21.457Z,35.48
2019-03-22T19:30:50.503Z,36.95
2019-03-22T19:33:18.932Z,35.70
2019-03-22T19:35:49.670Z,36.13
2019-03-22T19:38:17.351Z,37.00
2019-03-22T19:40:45.711Z,36.45
2019-03-22T19:43:13.987Z,34.15
2019-03-22T19:45:42.802Z,35.88
2019-03-22T19:48:11.527Z,36.23
2019-03-22T19:50:39.976Z,35.98
2019-03-22T19:53:12.245Z,36.15
2019-03-22T19:55:41.123Z,35.98
2019-03-22T19:58:09.494Z,36.23
2019-03-22T20:00:37.773Z,35.83
2019-03-22T20:03:06.561Z,35.40
2019-03-22T20:05:34.779Z,35.83
2019-03-22T20:08:03.356Z,33.80
2019-03-22T20:10:32.311Z,34.38
2019-03-22T20:13:00.721Z,34.38
2019-03-22T20:15:29.181Z,34.48
2019-03-22T20:17:59.089Z,35.98
2019-03-22T20:20:27.776Z,32.60
2019-03-22T20:22:56.166Z,33.13
2019-03-22T20:25:24.642Z,33.25
2019-03-22T20:27:53.021Z,33.02
2019-03-22T20:30:25.207Z,32.03
2019-03-22T20:32:54.167Z,32.40
2019-03-22T20:35:23.136Z,32.03
2019-03-22T20:37:54.821Z,33.35
2019-03-22T20:40:23.623Z,32.85
2019-03-22T20:42:55.313Z,32.48
2019-03-22T20:45:24.347Z,30.92
2019-03-22T20:47:53.169Z,32.50
2019-03-22T20:50:22.160Z,31.42
2019-03-22T20:52:50.641Z,32.60
2019-03-22T20:55:20.166Z,30.85
2019-03-22T20:57:48.528Z,33.33
2019-03-22T21:00:17.784Z,31.27
2019-03-22T21:02:46.727Z,32.88
2019-03-22T21:05:26.131Z,31.37
2019-03-22T21:07:45.639Z,33.10
2019-03-22T21:10:13.869Z,32.70
2019-03-22T21:12:42.951Z,31.00
2019-03-22T21:15:23.753Z,31.52
2019-03-22T21:17:44.784Z,29.02
2019-03-22T21:20:13.166Z,32.90
2019-03-22T21:22:41.751Z,32.98
2019-03-22T21:25:10.232Z,33.02
2019-03-22T21:27:42.321Z,32.45
2019-03-22T21:30:11.315Z,32.83
2019-03-22T21:32:45.313Z,33.63
2019-03-22T21:35:21.319Z,33.50
2019-03-22T21:37:39.814Z,33.85
2019-03-22T21:40:09.625Z,34.18
2019-03-22T21:42:39.646Z,34.20
2019-03-22T21:45:08.290Z,33.70
2019-03-22T21:47:37.019Z,34.15
2019-03-22T21:50:06.318Z,36.00
2019-03-22T21:52:35.517Z,35.83
2019-03-22T21:55:04.717Z,35.65
2019-03-22T21:57:33.097Z,36.13
2019-03-22T22:00:01.646Z,35.52
2019-03-22T22:02:30.950Z,34.13
2019-03-22T22:04:59.844Z,35.52
2019-03-22T22:07:32.238Z,35.95
2019-03-22T22:12:29.950Z,33.78
2019-03-22T22:14:59.538Z,34.58
2019-03-22T22:17:28.285Z,34.83
2019-03-22T22:19:57.632Z,35.70
2019-03-22T22:22:26.523Z,34.63
2019-03-22T22:24:55.004Z,35.33
2019-03-22T22:27:24.103Z,35.13
2019-03-22T22:29:52.582Z,34.45
2019-03-22T22:32:24.269Z,34.67
2019-03-22T22:34:53.300Z,37.20
2019-03-22T22:37:22.237Z,35.58
2019-03-22T22:39:50.506Z,36.28
2019-03-22T22:42:19.207Z,34.70
2019-03-22T22:44:47.436Z,37.08
2019-03-22T22:47:16.262Z,39.55
2019-03-22T22:49:44.640Z,37.50
2019-03-22T22:52:13.343Z,37.80
2019-03-22T22:54:41.713Z,39.98
2019-03-22T22:57:11.022Z,40.78
2019-03-22T22:59:40.120Z,40.73
2019-03-22T23:02:08.141Z,40.85
2019-03-22T23:04:37.491Z,40.03
2019-03-22T23:07:06.374Z,42.17
2019-03-22T23:09:35.533Z,40.98
2019-03-22T23:12:03.996Z,41.50
2019-03-22T23:14:33.299Z,43.87
2019-03-22T23:17:02.467Z,44.15
2019-03-22T23:19:30.843Z,45.10
2019-03-22T23:21:59.314Z,45.65
2019-03-22T23:24:27.806Z,44.08
2019-03-22T23:26:56.485Z,44.30
2019-03-22T23:29:25.025Z,44.08
2019-03-22T23:31:53.552Z,44.33
2019-03-22T23:34:22.363Z,45.25
2019-03-22T23:36:50.924Z,45.23
2019-03-22T23:39:19.512Z,45.23
2019-03-22T23:41:51.178Z,44.63
2019-03-22T23:44:20.570Z,45.63
2019-03-22T23:46:49.360Z,46.30
2019-03-22T23:49:18.354Z,48.55
2019-03-22T23:51:47.120Z,57.50
2019-03-22T23:54:16.110Z,62.88
2019-03-22T23:56:44.826Z,75.83
2019-03-22T23:59:13.514Z,81.65
